createdAt,value
2022-10-24T00:01:23.807Z,100423.91
2022-10-24T00:03:51.754Z,100421.78
2022-10-24T00:06:20.684Z,100429.34
2022-10-24T00:08:48.430Z,100434.88
2022-10-24T00:11:27.751Z,100426.69
2022-10-24T00:13:57.197Z,100415.44
2022-10-24T00:16:24.686Z,100423.72
2022-10-24T00:18:51.859Z,100403.81
2022-10-24T00:21:19.891Z,100390.13
2022-10-24T00:23:47.662Z,100407.47
2022-10-24T00:26:16.676Z,100397.44
2022-10-24T00:28:44.060Z,100403.47
2022-10-24T00:31:17.499Z,100414.22
2022-10-24T00:33:45.561Z,100419.75
2022-10-24T00:36:21.077Z,100423.50
2022-10-24T00:38:52.279Z,100433.97
2022-10-24T00:41:26.412Z,100438.03
2022-10-24T00:44:25.963Z,100419.91
2022-10-24T00:47:19.512Z,100431.63
2022-10-24T00:50:14.790Z,100425.19
2022-10-24T00:52:47.064Z,100420.03
2022-10-24T00:55:15.499Z,100418.19
2022-10-24T00:57:53.379Z,100428.84
2022-10-24T01:00:27.509Z,100444.31
2022-10-24T01:02:54.943Z,100452.59
2022-10-24T01:05:30.137Z,100452.47
2022-10-24T01:08:54.203Z,100457.28
2022-10-24T01:12:29.982Z,100468.94
2022-10-24T01:15:19.294Z,100473.03
2022-10-24T01:18:20.517Z,100475.66
2022-10-24T01:21:12.326Z,100463.69
2022-10-24T01:24:32.693Z,100461.91
2022-10-24T01:27:32.306Z,100451.94
2022-10-24T01:30:14.063Z,100450.75
2022-10-24T01:33:11.567Z,100451.28
2022-10-24T01:36:03.079Z,100444.75
2022-10-24T01:39:05.988Z,100425.28
2022-10-24T01:41:33.833Z,100429.16
2022-10-24T01:44:10.457Z,100422.66
2022-10-24T01:46:55.624Z,100412.88
2022-10-24T01:49:29.495Z,100412.06
2022-10-24T01:52:01.414Z,100408.00
2022-10-24T01:54:29.975Z,100407.00
2022-10-24T01:56:56.993Z,100401.00
2022-10-24T01:59:28.252Z,100394.31
2022-10-24T02:02:37.562Z,100384.63
2022-10-24T02:05:12.568Z,100407.03
2022-10-24T02:07:43.262Z,100400.94
2022-10-24T02:10:30.800Z,100387.25
2022-10-24T02:13:19.081Z,100390.53
2022-10-24T02:15:53.499Z,100375.78
2022-10-24T02:18:20.591Z,100387.44
2022-10-24T02:21:23.730Z,100381.06
2022-10-24T02:24:15.238Z,100379.00
2022-10-24T02:27:21.727Z,100377.41
2022-10-24T02:30:14.083Z,100370.78
2022-10-24T02:32:52.431Z,100375.59
2022-10-24T02:35:27.010Z,100377.13
2022-10-24T02:38:07.327Z,100376.84
2022-10-24T02:40:35.611Z,100373.97
2022-10-24T02:43:04.850Z,100375.38
2022-10-24T02:45:34.539Z,100373.56
2022-10-24T02:48:06.803Z,100364.72
2022-10-24T02:50:34.918Z,100360.75
2022-10-24T02:53:01.862Z,100367.50
2022-10-24T02:55:29.029Z,100366.66
2022-10-24T02:57:55.962Z,100357.53
2022-10-24T03:00:22.905Z,100359.75
2022-10-24T03:02:49.808Z,100362.09
2022-10-24T03:05:16.872Z,100360.19
2022-10-24T03:07:43.914Z,100366.66
2022-10-24T03:10:10.923Z,100362.94
2022-10-24T03:12:37.912Z,100365.97
2022-10-24T03:15:06.017Z,100365.66
2022-10-24T03:17:32.991Z,100365.78
2022-10-24T03:19:59.920Z,100361.94
2022-10-24T03:22:30.605Z,100369.81
2022-10-24T03:25:01.680Z,100370.03
2022-10-24T03:27:29.971Z,100363.47
2022-10-24T03:29:56.966Z,100365.53
2022-10-24T03:32:24.030Z,100366.63
2022-10-24T03:34:50.968Z,100373.66
2022-10-24T03:37:18.349Z,100367.44
2022-10-24T03:39:45.540Z,100373.00
2022-10-24T03:42:12.655Z,100358.03
2022-10-24T03:44:39.587Z,100368.94
2022-10-24T03:47:06.694Z,100369.34
2022-10-24T03:49:33.707Z,100365.56
2022-10-24T03:52:00.769Z,100364.81
2022-10-24T03:54:27.796Z,100364.81
2022-10-24T03:56:54.722Z,100360.19
2022-10-24T03:59:24.790Z,100352.44
2022-10-24T04:01:51.872Z,100352.97
2022-10-24T04:04:18.872Z,100356.28
2022-10-24T04:06:45.847Z,100357.81
2022-10-24T04:09:13.015Z,100366.78
2022-10-24T04:11:40.111Z,100361.84
2022-10-24T04:14:07.879Z,100369.53
2022-10-24T04:16:35.317Z,100361.84
2022-10-24T04:19:02.716Z,100364.59
2022-10-24T04:21:29.887Z,100367.34
2022-10-24T04:23:57.913Z,100362.94
2022-10-24T04:26:25.142Z,100364.72
2022-10-24T04:28:52.100Z,100357.41
2022-10-24T04:31:22.535Z,100359.34
2022-10-24T04:33:50.864Z,100349.97
2022-10-24T04:36:18.038Z,100362.78
2022-10-24T04:38:44.983Z,100350.78
2022-10-24T04:41:12.410Z,100366.78
2022-10-24T04:43:40.279Z,100359.44
2022-10-24T04:46:08.084Z,100359.59
2022-10-24T04:48:35.660Z,100369.81
2022-10-24T04:51:02.634Z,100368.72
2022-10-24T04:53:29.985Z,100366.44
2022-10-24T04:55:57.205Z,100373.34
2022-10-24T04:58:24.184Z,100368.88
2022-10-24T05:00:51.109Z,100365.06
2022-10-24T05:03:19.385Z,100369.97
2022-10-24T05:05:47.636Z,100364.00
2022-10-24T05:08:15.098Z,100363.16
2022-10-24T05:10:42.628Z,100370.59
2022-10-24T05:13:10.026Z,100371.38
2022-10-24T05:15:37.581Z,100382.00
2022-10-24T05:18:05.109Z,100383.16
2022-10-24T05:20:32.550Z,100386.34
2022-10-24T05:22:59.554Z,100387.69
2022-10-24T05:25:27.332Z,100377.19
2022-10-24T05:27:54.321Z,100386.16
2022-10-24T05:30:21.525Z,100382.69
2022-10-24T05:32:48.505Z,100388.13
2022-10-24T05:35:15.692Z,100387.66
2022-10-24T05:37:43.958Z,100386.03
2022-10-24T05:40:12.903Z,100388.03
2022-10-24T05:42:40.262Z,100388.75
2022-10-24T05:45:10.085Z,100389.59
2022-10-24T05:47:38.278Z,100381.88
2022-10-24T05:50:07.004Z,100383.53
2022-10-24T05:52:36.438Z,100381.06
2022-10-24T05:55:08.832Z,100379.72
2022-10-24T05:57:38.051Z,100381.13
2022-10-24T06:00:14.355Z,100376.56
2022-10-24T06:02:42.356Z,100363.28
2022-10-24T06:05:10.921Z,100374.53
2022-10-24T06:07:41.476Z,100379.91
2022-10-24T06:10:11.485Z,100385.94
2022-10-24T06:12:39.094Z,100377.81
2022-10-24T06:15:09.040Z,100376.44
2022-10-24T06:17:36.423Z,100366.44
2022-10-24T06:20:04.939Z,100363.41
2022-10-24T06:22:31.970Z,100368.13
2022-10-24T06:24:59.999Z,100365.09
2022-10-24T06:27:27.439Z,100351.84
2022-10-24T06:29:54.384Z,100350.19
2022-10-24T06:32:21.421Z,100354.06
2022-10-24T06:34:48.435Z,100357.41
2022-10-24T06:37:15.509Z,100361.25
2022-10-24T06:39:42.471Z,100368.28
2022-10-24T06:42:09.591Z,100366.25
2022-10-24T06:44:36.708Z,100366.38
2022-10-24T06:47:03.745Z,100364.88
2022-10-24T06:49:30.898Z,100373.94
2022-10-24T06:51:58.074Z,100371.06
2022-10-24T06:54:27.746Z,100377.59
2022-10-24T06:56:57.520Z,100374.81
2022-10-24T06:59:24.582Z,100372.59
2022-10-24T07:01:52.128Z,100374.41
2022-10-24T07:04:19.375Z,100374.28
2022-10-24T07:06:46.438Z,100375.66
2022-10-24T07:09:15.428Z,100383.09
2022-10-24T07:11:47.784Z,100385.03
2022-10-24T07:14:14.724Z,100396.50
2022-10-24T07:16:41.884Z,100406.72
2022-10-24T07:19:08.889Z,100409.47
2022-10-24T07:21:35.946Z,100418.16
2022-10-24T07:24:04.353Z,100424.53
2022-10-24T07:26:31.962Z,100423.38
2022-10-24T07:31:37.141Z,100414.03
2022-10-24T07:34:08.125Z,100414.53
2022-10-24T07:36:41.386Z,100416.34
2022-10-24T07:39:10.145Z,100416.47
2022-10-24T07:41:41.248Z,100400.72
2022-10-24T07:44:10.276Z,100403.16
2022-10-24T07:46:38.496Z,100407.63
2022-10-24T07:49:05.503Z,100409.56
2022-10-24T07:51:32.424Z,100406.00
2022-10-24T07:53:59.477Z,100397.00
2022-10-24T07:56:26.733Z,100406.47
2022-10-24T07:58:56.003Z,100420.25
2022-10-24T08:01:29.318Z,100403.94
2022-10-24T08:03:57.677Z,100404.78
2022-10-24T08:06:31.177Z,100405.56
2022-10-24T08:08:58.506Z,100406.97
2022-10-24T08:11:28.951Z,100399.50
2022-10-24T08:13:57.285Z,100400.16
2022-10-24T08:16:26.211Z,100403.63
2022-10-24T08:18:56.516Z,100398.63
2022-10-24T08:21:25.383Z,100404.63
2022-10-24T08:23:55.354Z,100404.72
2022-10-24T08:26:25.308Z,100400.50
2022-10-24T08:28:55.393Z,100411.91
2022-10-24T08:31:26.070Z,100403.59
2022-10-24T08:33:55.764Z,100403.63
2022-10-24T08:36:28.898Z,100398.97
2022-10-24T08:38:56.340Z,100395.06
2022-10-24T08:41:46.708Z,100406.63
2022-10-24T08:44:44.024Z,100391.41
2022-10-24T08:48:06.748Z,100388.16
2022-10-24T08:50:36.619Z,100379.09
2022-10-24T08:53:31.551Z,100385.38
2022-10-24T08:56:01.401Z,100392.97
2022-10-24T08:58:46.580Z,100383.53
2022-10-24T09:01:30.328Z,100387.00
2022-10-24T09:04:04.805Z,100386.19
2022-10-24T09:06:33.592Z,100376.59
2022-10-24T09:09:19.624Z,100383.38
2022-10-24T09:12:13.413Z,100379.91
2022-10-24T09:14:44.444Z,100379.03
2022-10-24T09:17:33.817Z,100369.28
2022-10-24T09:20:32.620Z,100376.91
2022-10-24T09:23:05.623Z,100377.53
2022-10-24T09:25:40.567Z,100375.72
2022-10-24T09:28:07.701Z,100374.53
2022-10-24T09:30:37.484Z,100379.81
2022-10-24T09:33:35.428Z,100383.13
2022-10-24T09:36:05.849Z,100385.44
2022-10-24T09:38:36.883Z,100391.50
2022-10-24T09:41:29.657Z,100383.16
2022-10-24T09:44:02.088Z,100386.94
2022-10-24T09:46:44.989Z,100398.81
2022-10-24T09:49:22.618Z,100379.78
2022-10-24T09:52:25.579Z,100382.75
2022-10-24T09:55:28.750Z,100373.72
2022-10-24T09:58:00.148Z,100369.44
2022-10-24T10:00:35.781Z,100367.03
2022-10-24T10:03:23.796Z,100385.97
2022-10-24T10:05:54.503Z,100369.09
2022-10-24T10:08:35.510Z,100378.59
2022-10-24T10:11:12.252Z,100370.94
2022-10-24T10:13:55.252Z,100381.16
2022-10-24T10:16:38.425Z,100375.06
2022-10-24T10:19:21.070Z,100370.41
2022-10-24T10:22:03.320Z,100370.72
2022-10-24T10:24:35.997Z,100371.44
2022-10-24T10:27:36.722Z,100369.53
2022-10-24T10:30:14.702Z,100374.59
2022-10-24T10:33:39.065Z,100365.66
2022-10-24T10:36:31.175Z,100360.59
2022-10-24T10:39:45.761Z,100371.53
2022-10-24T10:42:49.168Z,100362.41
2022-10-24T10:46:05.453Z,100366.50
2022-10-24T10:49:15.575Z,100363.72
2022-10-24T10:52:27.458Z,100370.72
2022-10-24T10:55:29.765Z,100365.41
2022-10-24T10:58:32.805Z,100365.47
2022-10-24T11:01:39.528Z,100363.81
2022-10-24T11:05:04.594Z,100370.59
2022-10-24T11:07:40.555Z,100374.78
2022-10-24T11:10:16.597Z,100369.19
2022-10-24T11:12:45.473Z,100368.97
2022-10-24T11:15:37.182Z,100365.38
2022-10-24T11:18:29.454Z,100362.91
2022-10-24T11:21:13.982Z,100354.63
2022-10-24T11:24:13.592Z,100347.41
2022-10-24T11:27:06.534Z,100340.44
2022-10-24T11:29:50.946Z,100351.25
2022-10-24T11:32:42.726Z,100351.03
2022-10-24T11:35:37.170Z,100359.66
2022-10-24T11:38:18.854Z,100353.16
2022-10-24T11:40:54.880Z,100354.69
2022-10-24T11:43:36.464Z,100358.22
2022-10-24T11:46:26.271Z,100343.75
2022-10-24T11:49:11.839Z,100355.44
2022-10-24T11:52:01.666Z,100357.47
2022-10-24T11:55:01.483Z,100356.13
2022-10-24T11:57:31.506Z,100344.78
2022-10-24T11:59:59.533Z,100346.81
2022-10-24T12:03:19.130Z,100346.63
2022-10-24T12:06:22.710Z,100340.63
2022-10-24T12:09:44.902Z,100334.06
2022-10-24T12:12:57.796Z,100328.06
2022-10-24T12:15:39.110Z,100331.44
2022-10-24T12:18:26.441Z,100330.75
2022-10-24T12:20:56.828Z,100328.44
2022-10-24T12:23:31.499Z,100336.66
2022-10-24T12:26:18.487Z,100325.50
2022-10-24T12:29:07.715Z,100322.25
2022-10-24T12:31:38.310Z,100328.03
2022-10-24T12:34:20.590Z,100314.25
2022-10-24T12:37:31.551Z,100312.31
2022-10-24T12:39:59.011Z,100310.25
2022-10-24T12:42:26.059Z,100307.28
2022-10-24T12:45:23.355Z,100300.47
2022-10-24T12:47:53.192Z,100303.34
2022-10-24T12:50:22.852Z,100292.16
2022-10-24T12:53:34.669Z,100295.47
2022-10-24T12:56:14.612Z,100296.28
2022-10-24T12:58:45.325Z,100288.84
2022-10-24T13:01:35.222Z,100297.09
2022-10-24T13:05:05.473Z,100302.22
2022-10-24T13:08:20.064Z,100293.56
2022-10-24T13:11:00.929Z,100291.16
2022-10-24T13:14:00.600Z,100288.63
2022-10-24T13:16:58.996Z,100293.41
2022-10-24T13:19:27.390Z,100289.94
2022-10-24T13:21:59.672Z,100294.59
2022-10-24T13:24:40.476Z,100293.13
2022-10-24T13:27:12.546Z,100291.13
2022-10-24T13:29:39.832Z,100287.34
2022-10-24T13:32:07.084Z,100298.63
2022-10-24T13:34:54.790Z,100288.69
2022-10-24T13:37:50.905Z,100288.94
2022-10-24T13:40:34.055Z,100289.69
2022-10-24T13:43:14.165Z,100288.59
2022-10-24T13:46:19.757Z,100296.16
2022-10-24T13:48:49.237Z,100294.78
2022-10-24T13:51:46.577Z,100308.34
2022-10-24T13:54:33.576Z,100309.78
2022-10-24T13:57:02.259Z,100306.75
2022-10-24T13:59:37.293Z,100318.03
2022-10-24T14:02:18.803Z,100316.97
2022-10-24T14:04:48.675Z,100314.56
2022-10-24T14:07:33.565Z,100322.22
2022-10-24T14:10:11.315Z,100316.84
2022-10-24T14:12:41.183Z,100308.22
2022-10-24T14:15:23.068Z,100306.59
2022-10-24T14:18:14.235Z,100309.41
2022-10-24T14:20:43.117Z,100317.66
2022-10-24T14:23:39.881Z,100305.56
2022-10-24T14:26:20.633Z,100319.28
2022-10-24T14:28:59.920Z,100313.06
2022-10-24T14:31:34.662Z,100316.72
2022-10-24T14:34:05.998Z,100319.53
2022-10-24T14:36:37.717Z,100318.63
2022-10-24T14:39:06.209Z,100321.19
2022-10-24T14:41:40.688Z,100317.47
2022-10-24T14:44:11.919Z,100318.50
2022-10-24T14:46:42.458Z,100317.88
2022-10-24T14:49:27.509Z,100328.75
2022-10-24T14:52:16.793Z,100328.75
2022-10-24T14:55:04.294Z,100329.22
2022-10-24T14:57:35.227Z,100331.94
2022-10-24T15:00:08.819Z,100332.53
2022-10-24T15:02:43.089Z,100327.25
2022-10-24T15:05:22.797Z,100330.16
2022-10-24T15:08:21.728Z,100320.56
2022-10-24T15:10:50.064Z,100321.53
2022-10-24T15:13:21.541Z,100311.88
2022-10-24T15:15:57.627Z,100316.28
2022-10-24T15:18:43.509Z,100309.38
2022-10-24T15:21:22.294Z,100318.00
2022-10-24T15:23:59.856Z,100316.09
2022-10-24T15:26:40.408Z,100329.34
2022-10-24T15:29:23.182Z,100321.59
2022-10-24T15:31:52.004Z,100328.72
2022-10-24T15:34:23.976Z,100329.78
2022-10-24T15:36:53.588Z,100321.53
2022-10-24T15:39:25.525Z,100333.47
2022-10-24T15:41:53.624Z,100318.94
2022-10-24T15:44:30.178Z,100324.94
2022-10-24T15:46:57.313Z,100320.97
2022-10-24T15:49:24.339Z,100330.72
2022-10-24T15:51:51.632Z,100336.84
2022-10-24T15:54:22.658Z,100331.09
2022-10-24T15:56:50.440Z,100328.28
2022-10-24T15:59:20.352Z,100333.63
2022-10-24T16:02:05.346Z,100334.63
2022-10-24T16:04:33.326Z,100335.91
2022-10-24T16:07:01.542Z,100338.75
2022-10-24T16:09:28.562Z,100340.22
2022-10-24T16:11:55.550Z,100349.00
2022-10-24T16:14:27.172Z,100347.19
2022-10-24T16:16:55.201Z,100348.16
2022-10-24T16:19:26.333Z,100349.00
2022-10-24T16:21:58.885Z,100351.81
2022-10-24T16:24:28.003Z,100341.91
2022-10-24T16:26:55.113Z,100349.69
2022-10-24T16:29:22.051Z,100355.28
2022-10-24T16:31:50.825Z,100364.53
2022-10-24T16:34:17.898Z,100360.41
2022-10-24T16:36:44.901Z,100362.22
2022-10-24T16:39:14.345Z,100367.00
2022-10-24T16:41:45.765Z,100362.91
2022-10-24T16:44:14.393Z,100360.75
2022-10-24T16:46:47.098Z,100374.31
2022-10-24T16:49:14.177Z,100372.00
2022-10-24T16:51:43.999Z,100373.63
2022-10-24T16:54:11.269Z,100375.94
2022-10-24T16:56:38.216Z,100370.81
2022-10-24T16:59:05.188Z,100375.97
2022-10-24T17:01:32.431Z,100371.00
2022-10-24T17:04:00.529Z,100376.63
2022-10-24T17:06:27.511Z,100373.31
2022-10-24T17:08:54.477Z,100366.72
2022-10-24T17:11:43.713Z,100380.59
2022-10-24T17:16:42.224Z,100373.00
2022-10-24T17:19:16.044Z,100383.56
2022-10-24T17:21:48.210Z,100386.84
2022-10-24T17:24:24.370Z,100388.19
2022-10-24T17:26:52.628Z,100388.81
2022-10-24T17:29:31.737Z,100393.28
2022-10-24T17:32:03.445Z,100388.50
2022-10-24T17:34:30.685Z,100383.38
2022-10-24T17:37:22.221Z,100401.19
2022-10-24T17:40:02.803Z,100388.50
2022-10-24T17:42:29.939Z,100396.41
2022-10-24T17:44:57.036Z,100398.41
2022-10-24T17:47:24.091Z,100396.41
2022-10-24T17:49:51.022Z,100396.22
2022-10-24T17:52:23.169Z,100395.41
2022-10-24T17:54:50.997Z,100398.03
2022-10-24T17:57:17.928Z,100397.69
2022-10-24T17:59:45.409Z,100401.16
2022-10-24T18:02:14.369Z,100406.25
2022-10-24T18:04:42.909Z,100404.06
2022-10-24T18:07:10.251Z,100397.50
2022-10-24T18:09:39.957Z,100403.59
2022-10-24T18:12:07.165Z,100400.75
2022-10-24T18:14:37.425Z,100406.88
2022-10-24T18:17:04.533Z,100406.19
2022-10-24T18:19:31.626Z,100405.88
2022-10-24T18:21:58.553Z,100413.13
2022-10-24T18:24:25.548Z,100409.81
2022-10-24T18:26:52.468Z,100408.00
2022-10-24T18:29:19.421Z,100401.88
2022-10-24T18:31:46.407Z,100409.13
2022-10-24T18:34:13.360Z,100412.13
2022-10-24T18:36:40.308Z,100411.31
2022-10-24T18:39:07.292Z,100420.00
2022-10-24T18:41:54.537Z,100417.50
2022-10-24T18:44:33.491Z,100421.50
2022-10-24T18:47:06.802Z,100420.00
2022-10-24T18:49:35.469Z,100429.72
2022-10-24T18:52:18.376Z,100425.78
2022-10-24T18:55:04.235Z,100425.09
2022-10-24T18:57:34.467Z,100421.09
2022-10-24T19:00:01.596Z,100421.94
2022-10-24T19:02:38.499Z,100421.78
2022-10-24T19:05:20.240Z,100419.97
2022-10-24T19:07:48.216Z,100423.13
2022-10-24T19:10:24.144Z,100423.59
2022-10-24T19:12:52.381Z,100422.59
2022-10-24T19:15:19.955Z,100424.72
2022-10-24T19:17:49.049Z,100426.22
2022-10-24T19:20:23.411Z,100424.84
2022-10-24T19:22:51.264Z,100419.41
2022-10-24T19:25:18.943Z,100409.16
2022-10-24T19:27:45.957Z,100422.03
2022-10-24T19:30:13.505Z,100420.69
2022-10-24T19:32:40.440Z,100415.41
2022-10-24T19:35:07.959Z,100419.56
2022-10-24T19:37:36.939Z,100423.31
2022-10-24T19:40:05.399Z,100423.47
2022-10-24T19:42:34.491Z,100425.44
2022-10-24T19:45:02.085Z,100431.03
2022-10-24T19:47:29.012Z,100418.09
2022-10-24T19:49:56.013Z,100432.28
2022-10-24T19:52:23.053Z,100425.34
2022-10-24T19:54:50.025Z,100423.88
2022-10-24T19:57:17.196Z,100432.13
2022-10-24T19:59:44.210Z,100441.53
2022-10-24T20:02:13.790Z,100433.63
2022-10-24T20:04:41.390Z,100440.19
2022-10-24T20:07:09.444Z,100437.88
2022-10-24T20:09:37.071Z,100436.88
2022-10-24T20:12:04.985Z,100439.69
2022-10-24T20:14:32.002Z,100445.94
2022-10-24T20:16:58.907Z,100437.88
2022-10-24T20:19:25.897Z,100440.97
2022-10-24T20:21:52.904Z,100436.81
2022-10-24T20:24:20.049Z,100445.25
2022-10-24T20:26:46.960Z,100441.78
2022-10-24T20:29:15.148Z,100445.41
2022-10-24T20:31:46.870Z,100448.00
2022-10-24T20:34:15.283Z,100455.97
2022-10-24T20:36:47.144Z,100457.91
2022-10-24T20:39:20.898Z,100451.09
2022-10-24T20:41:51.767Z,100450.72
2022-10-24T20:44:21.201Z,100456.19
2022-10-24T20:46:48.105Z,100457.03
2022-10-24T20:49:15.119Z,100456.72
2022-10-24T20:51:43.058Z,100452.06
2022-10-24T20:54:10.985Z,100459.66
2022-10-24T20:56:42.206Z,100456.34
2022-10-24T20:59:11.807Z,100465.91
2022-10-24T21:01:38.835Z,100469.47
2022-10-24T21:04:05.903Z,100465.16
2022-10-24T21:06:34.130Z,100471.28
2022-10-24T21:09:04.962Z,100482.25
2022-10-24T21:11:33.721Z,100476.34
2022-10-24T21:14:07.292Z,100476.34
2022-10-24T21:16:34.855Z,100487.69
2022-10-24T21:19:02.223Z,100484.13
2022-10-24T21:21:29.422Z,100483.84
2022-10-24T21:24:03.943Z,100487.16
2022-10-24T21:26:38.436Z,100484.13
2022-10-24T21:29:31.607Z,100500.78
2022-10-24T21:31:54.120Z,100490.78
2022-10-24T21:34:22.067Z,100489.13
2022-10-24T21:36:49.167Z,100484.81
2022-10-24T21:39:17.331Z,100486.78
2022-10-24T21:41:44.813Z,100498.34
2022-10-24T21:44:12.362Z,100499.19
2022-10-24T21:46:40.047Z,100492.19
2022-10-24T21:49:06.964Z,100501.38
2022-10-24T21:51:37.566Z,100505.97
2022-10-24T21:54:23.538Z,100498.22
2022-10-24T21:56:50.860Z,100499.81
2022-10-24T21:59:20.742Z,100506.03
2022-10-24T22:01:50.786Z,100494.81
2022-10-24T22:04:18.885Z,100507.84
2022-10-24T22:06:46.821Z,100502.56
2022-10-24T22:09:21.281Z,100507.84
2022-10-24T22:11:48.614Z,100509.19
2022-10-24T22:14:17.838Z,100507.31
2022-10-24T22:16:45.547Z,100514.28
2022-10-24T22:19:14.389Z,100523.69
2022-10-24T22:21:46.469Z,100526.03
2022-10-24T22:24:21.500Z,100524.38
2022-10-24T22:26:49.995Z,100524.47
2022-10-24T22:29:21.527Z,100529.41
2022-10-24T22:31:51.897Z,100522.50
2022-10-24T22:34:25.334Z,100520.53
2022-10-24T22:37:27.396Z,100520.53
2022-10-24T22:39:54.617Z,100529.41
2022-10-24T22:42:21.740Z,100539.38
2022-10-24T22:44:50.812Z,100528.44
2022-10-24T22:48:04.909Z,100543.97
2022-10-24T22:50:56.436Z,100535.22
2022-10-24T22:53:30.668Z,100547.41
2022-10-24T22:56:33.258Z,100547.03
2022-10-24T22:59:01.556Z,100555.25
2022-10-24T23:01:57.877Z,100552.06
2022-10-24T23:04:46.579Z,100554.28
2022-10-24T23:08:03.161Z,100561.13
2022-10-24T23:10:30.182Z,100565.72
2022-10-24T23:12:57.504Z,100567.03
2022-10-24T23:15:24.961Z,100559.25
2022-10-24T23:17:52.492Z,100565.13
2022-10-24T23:20:43.904Z,100560.16
2022-10-24T23:23:28.753Z,100569.84
2022-10-24T23:26:18.662Z,100562.91
2022-10-24T23:29:27.983Z,100564.34
2022-10-24T23:31:55.502Z,100567.63
2022-10-24T23:34:23.027Z,100561.03
2022-10-24T23:36:52.640Z,100566.56
2022-10-24T23:41:48.499Z,100565.47
2022-10-24T23:44:16.087Z,100559.22
2022-10-24T23:47:11.170Z,100567.69
2022-10-24T23:50:15.056Z,100564.63
2022-10-24T23:53:05.670Z,100563.56
2022-10-24T23:55:33.062Z,100565.78
2022-10-24T23:58:01.082Z,100563.41
